Winkler County Airport
KINK : now visible

Airfield :











YOU CAN JOIN US ON...

 
LOGIN :

Register | Disclaimer

   EN    FR    IT 

 









Legend :    VFR   Marginal VFR   IFR   Intensive IFR   Very Intensive IFR
Visi :
Ceiling :
>= 8 km
>= 3000ft
5 to 8 km
1000 to 3000 ft
1500m to 5 km
500 to 1000 ft
800 to 1500m
200 to 500 ft
< 800m
< 200 ft
Symbols :   Thunderstorms  Fog  Heavy snow  Heavy precipitations  Wind > 20 kt






- Airport Elevation : 2822 ft


KINK - Winkler County

CURRENT METAR :
  • 061853Z AUTO 17006KT 10SM CLR 22/M02 A2984 RMK AO2 SLP078 T02171022 $

EXPIRED METARs :
  • 061753Z AUTO VRB03KT 10SM CLR 18/M01 A2988 RMK AO2 SLP096 T01831011 10183 20011 58007 $
  • 061653Z AUTO 09004KT 10SM CLR 14/03 A2991 RMK AO2 SLP108 T01390028 $

TAF KINK
Valid from the 06 at 18:00 until the 07 at 18:00 UTC


061747Z 0618/0718 23013KT P6SM SCT200
FM070300 15008KT P6SM SCT200
KZFW FIR / North America



MET'MAP, your aeronautical weather chart ! - Copyright ORBIFLY December 2007 - Disclaimer

ORBIFLY MET'MAP TEAM :

Programming & Development : Alexandra Zaïnal
Original concept : Baudouin d'Aumeries
Technical & hardware support : Manuel Goepfert
Assistance : Marc-Olivier Méhu




SOURCES & CREDITS :

   NOAA       Earth
Advisory